Pagina principale
METAR-TAF:

METAR-TAF

Aeroporti :

Büchel, Germania

latitudine: 50-10N, longitudine: 007-04E, altezza: 478 m

Osservazione

Il bollettino è stato emesso 1 ora e 14 minuti fa, alle 08:20 UTC
Vento 9 kt da sud-ovest
Temperature 10°C
Umidità 71%
Pressione 1007 hPa
Visibilità 10 km o più

METAR: ETSB 070820Z AUTO 23009KT 9999 // ////// 10/05 Q1007 ///

Ora: 11:34 (09:34 UTC)


TAF: mancante

Osservazioni e previsioni meteorologiche di più di 4000 aeroporti (messaggi METAR e TAF).

Le stazioni disponibili sono rappresentate dai dischi gialli e rossi sulla carta.

Puntare il mouse per vedere il nome della stazione.

Clicca sopra per visualizzare le osservazioni e previsioni meteorologiche.

Per cambiare la mappa : fare clic sui pulsanti verdi con una croce nera per ingrandire, il pulsante verde con un trattino per diminuire, o sulla freccia verde per le mappe adiacenti.


METAR-TAF: